sensor_id;sensor_type;location;lat;lon;timestamp;temperature;humidity
20479;DHT22;10398;52.490;13.434;2023-03-01T00:01:10;3.90;97.30
20479;DHT22;10398;52.490;13.434;2023-03-01T00:03:36;3.90;97.40
20479;DHT22;10398;52.490;13.434;2023-03-01T00:06:03;3.90;97.60
20479;DHT22;10398;52.490;13.434;2023-03-01T00:08:29;3.90;97.70
20479;DHT22;10398;52.490;13.434;2023-03-01T00:11:15;4.00;97.60
20479;DHT22;10398;52.490;13.434;2023-03-01T00:13:43;4.00;97.40
20479;DHT22;10398;52.490;13.434;2023-03-01T00:16:11;4.10;97.40
20479;DHT22;10398;52.490;13.434;2023-03-01T00:18:38;4.10;97.40
20479;DHT22;10398;52.490;13.434;2023-03-01T00:21:04;4.10;97.50
20479;DHT22;10398;52.490;13.434;2023-03-01T00:23:29;4.10;97.50
20479;DHT22;10398;52.490;13.434;2023-03-01T00:25:55;4.20;97.70
20479;DHT22;10398;52.490;13.434;2023-03-01T00:28:21;4.10;97.70
20479;DHT22;10398;52.490;13.434;2023-03-01T00:30:47;4.10;97.80
20479;DHT22;10398;52.490;13.434;2023-03-01T00:33:13;4.00;98.00
20479;DHT22;10398;52.490;13.434;2023-03-01T00:35:38;4.00;98.10
20479;DHT22;10398;52.490;13.434;2023-03-01T00:38:04;4.00;98.20
20479;DHT22;10398;52.490;13.434;2023-03-01T00:40:33;4.00;98.20
20479;DHT22;10398;52.490;13.434;2023-03-01T00:42:59;4.00;98.30
20479;DHT22;10398;52.490;13.434;2023-03-01T00:45:25;4.00;98.50
20479;DHT22;10398;52.490;13.434;2023-03-01T00:47:51;4.00;98.60
20479;DHT22;10398;52.490;13.434;2023-03-01T00:50:18;4.00;98.70
20479;DHT22;10398;52.490;13.434;2023-03-01T00:52:44;3.90;98.80
20479;DHT22;10398;52.490;13.434;2023-03-01T00:55:11;3.90;98.90
20479;DHT22;10398;52.490;13.434;2023-03-01T00:57:37;3.90;99.00
20479;DHT22;10398;52.490;13.434;2023-03-01T01:00:05;3.90;99.10
20479;DHT22;10398;52.490;13.434;2023-03-01T01:02:34;3.80;99.20
20479;DHT22;10398;52.490;13.434;2023-03-01T01:05:00;3.60;99.40
20479;DHT22;10398;52.490;13.434;2023-03-01T01:07:25;3.70;99.60
20479;DHT22;10398;52.490;13.434;2023-03-01T01:09:51;3.70;99.60
20479;DHT22;10398;52.490;13.434;2023-03-01T01:12:17;3.70;99.70
20479;DHT22;10398;52.490;13.434;2023-03-01T01:14:42;3.80;99.80
20479;DHT22;10398;52.490;13.434;2023-03-01T01:17:08;3.70;99.90
20479;DHT22;10398;52.490;13.434;2023-03-01T01:19:34;3.70;99.90
20479;DHT22;10398;52.490;13.434;2023-03-01T01:21:59;3.70;99.90
20479;DHT22;10398;52.490;13.434;2023-03-01T01:24:25;3.70;99.90
20479;DHT22;10398;52.490;13.434;2023-03-01T01:26:51;3.70;99.90
20479;DHT22;10398;52.490;13.434;2023-03-01T01:29:17;3.60;99.90
20479;DHT22;10398;52.490;13.434;2023-03-01T01:31:42;3.60;99.90
20479;DHT22;10398;52.490;13.434;2023-03-01T01:34:13;3.60;99.90
20479;DHT22;10398;52.490;13.434;2023-03-01T01:36:39;3.70;99.90
20479;DHT22;10398;52.490;13.434;2023-03-01T01:39:05;3.70;99.90
20479;DHT22;10398;52.490;13.434;2023-03-01T01:41:31;3.70;99.90
20479;DHT22;10398;52.490;13.434;2023-03-01T01:44:19;3.70;99.90
20479;DHT22;10398;52.490;13.434;2023-03-01T01:46:51;3.60;99.90
20479;DHT22;10398;52.490;13.434;2023-03-01T01:51:45;3.60;99.90
20479;DHT22;10398;52.490;13.434;2023-03-01T01:54:23;3.60;99.90
20479;DHT22;10398;52.490;13.434;2023-03-01T01:56:56;3.60;99.90
20479;DHT22;10398;52.490;13.434;2023-03-01T01:59:28;3.60;99.90
20479;DHT22;10398;52.490;13.434;2023-03-01T02:01:54;3.60;99.90
20479;DHT22;10398;52.490;13.434;2023-03-01T02:04:21;3.50;99.90
20479;DHT22;10398;52.490;13.434;2023-03-01T02:06:51;3.50;99.90
20479;DHT22;10398;52.490;13.434;2023-03-01T02:09:20;3.40;99.90
20479;DHT22;10398;52.490;13.434;2023-03-01T02:11:47;3.30;99.90
20479;DHT22;10398;52.490;13.434;2023-03-01T02:14:15;3.30;99.90
20479;DHT22;10398;52.490;13.434;2023-03-01T02:16:41;3.30;99.90
20479;DHT22;10398;52.490;13.434;2023-03-01T02:19:09;3.40;99.90
20479;DHT22;10398;52.490;13.434;2023-03-01T02:24:36;3.50;99.90
20479;DHT22;10398;52.490;13.434;2023-03-01T02:27:05;3.50;99.90
20479;DHT22;10398;52.490;13.434;2023-03-01T02:29:43;3.50;99.90
20479;DHT22;10398;52.490;13.434;2023-03-01T02:32:10;3.50;99.90
20479;DHT22;10398;52.490;13.434;2023-03-01T02:34:36;3.40;99.90
20479;DHT22;10398;52.490;13.434;2023-03-01T02:37:13;3.40;99.90
20479;DHT22;10398;52.490;13.434;2023-03-01T02:39:44;3.30;99.90
20479;DHT22;10398;52.490;13.434;2023-03-01T02:42:15;3.30;99.90
20479;DHT22;10398;52.490;13.434;2023-03-01T02:44:42;3.40;99.90
20479;DHT22;10398;52.490;13.434;2023-03-01T02:47:08;3.40;99.90
20479;DHT22;10398;52.490;13.434;2023-03-01T02:49:36;3.30;99.90
20479;DHT22;10398;52.490;13.434;2023-03-01T02:55:06;3.10;99.90
20479;DHT22;10398;52.490;13.434;2023-03-01T02:57:35;3.00;99.90
20479;DHT22;10398;52.490;13.434;2023-03-01T03:00:08;2.90;99.90
20479;DHT22;10398;52.490;13.434;2023-03-01T03:02:35;2.80;99.90
20479;DHT22;10398;52.490;13.434;2023-03-01T03:05:04;2.80;99.90
20479;DHT22;10398;52.490;13.434;2023-03-01T03:07:32;2.80;99.90
20479;DHT22;10398;52.490;13.434;2023-03-01T03:09:59;2.80;99.90
20479;DHT22;10398;52.490;13.434;2023-03-01T03:12:25;2.80;99.90
20479;DHT22;10398;52.490;13.434;2023-03-01T03:14:50;2.70;99.90
20479;DHT22;10398;52.490;13.434;2023-03-01T03:17:16;2.70;99.90
20479;DHT22;10398;52.490;13.434;2023-03-01T03:19:42;2.70;99.90
20479;DHT22;10398;52.490;13.434;2023-03-01T03:22:11;2.60;99.90
20479;DHT22;10398;52.490;13.434;2023-03-01T03:24:37;2.60;99.90
20479;DHT22;10398;52.490;13.434;2023-03-01T03:27:06;2.60;99.90
20479;DHT22;10398;52.490;13.434;2023-03-01T03:29:32;2.60;99.90
20479;DHT22;10398;52.490;13.434;2023-03-01T03:31:58;2.70;99.90
20479;DHT22;10398;52.490;13.434;2023-03-01T03:34:24;2.60;99.90
20479;DHT22;10398;52.490;13.434;2023-03-01T03:36:56;2.60;99.90
20479;DHT22;10398;52.490;13.434;2023-03-01T03:39:28;2.60;99.90
20479;DHT22;10398;52.490;13.434;2023-03-01T03:41:54;2.60;99.90
20479;DHT22;10398;52.490;13.434;2023-03-01T03:44:20;2.60;99.90
20479;DHT22;10398;52.490;13.434;2023-03-01T03:46:46;2.60;99.90
20479;DHT22;10398;52.490;13.434;2023-03-01T03:49:12;2.60;99.90
20479;DHT22;10398;52.490;13.434;2023-03-01T03:51:37;2.60;99.90
20479;DHT22;10398;52.490;13.434;2023-03-01T03:54:03;2.60;99.90
20479;DHT22;10398;52.490;13.434;2023-03-01T03:56:29;2.60;99.90
20479;DHT22;10398;52.490;13.434;2023-03-01T03:58:54;2.50;99.90
20479;DHT22;10398;52.490;13.434;2023-03-01T04:01:20;2.40;99.90
20479;DHT22;10398;52.490;13.434;2023-03-01T04:03:46;2.30;99.90
20479;DHT22;10398;52.490;13.434;2023-03-01T04:06:15;2.30;99.90
20479;DHT22;10398;52.490;13.434;2023-03-01T04:08:41;2.30;99.90
20479;DHT22;10398;52.490;13.434;2023-03-01T04:11:07;2.40;99.90
20479;DHT22;10398;52.490;13.434;2023-03-01T04:13:53;2.40;99.90
20479;DHT22;10398;52.490;13.434;2023-03-01T04:16:19;2.40;99.90
20479;DHT22;10398;52.490;13.434;2023-03-01T04:18:45;2.30;99.90
20479;DHT22;10398;52.490;13.434;2023-03-01T04:21:11;2.30;99.90
20479;DHT22;10398;52.490;13.434;2023-03-01T04:23:37;2.30;99.90
20479;DHT22;10398;52.490;13.434;2023-03-01T04:26:04;2.20;99.90
20479;DHT22;10398;52.490;13.434;2023-03-01T04:28:32;2.20;99.90
20479;DHT22;10398;52.490;13.434;2023-03-01T04:31:19;2.20;99.90
20479;DHT22;10398;52.490;13.434;2023-03-01T04:33:52;2.10;99.90
20479;DHT22;10398;52.490;13.434;2023-03-01T04:36:20;2.10;99.90
20479;DHT22;10398;52.490;13.434;2023-03-01T04:38:46;2.10;99.90
20479;DHT22;10398;52.490;13.434;2023-03-01T04:41:17;2.10;99.90
20479;DHT22;10398;52.490;13.434;2023-03-01T04:43:43;2.20;99.90
20479;DHT22;10398;52.490;13.434;2023-03-01T04:46:12;2.10;99.90
20479;DHT22;10398;52.490;13.434;2023-03-01T04:48:40;2.10;99.90
20479;DHT22;10398;52.490;13.434;2023-03-01T04:51:06;2.10;99.90
20479;DHT22;10398;52.490;13.434;2023-03-01T04:53:33;2.20;99.90
20479;DHT22;10398;52.490;13.434;2023-03-01T04:55:59;2.20;99.90
20479;DHT22;10398;52.490;13.434;2023-03-01T04:58:26;2.20;99.90
20479;DHT22;10398;52.490;13.434;2023-03-01T05:00:53;2.10;99.90
20479;DHT22;10398;52.490;13.434;2023-03-01T05:03:20;2.00;99.90
20479;DHT22;10398;52.490;13.434;2023-03-01T05:05:48;2.00;99.90
20479;DHT22;10398;52.490;13.434;2023-03-01T05:08:15;1.90;99.90
20479;DHT22;10398;52.490;13.434;2023-03-01T05:10:51;1.90;99.90
20479;DHT22;10398;52.490;13.434;2023-03-01T05:13:18;1.90;99.90
20479;DHT22;10398;52.490;13.434;2023-03-01T05:16:07;2.00;99.90
20479;DHT22;10398;52.490;13.434;2023-03-01T05:18:36;2.10;99.90
20479;DHT22;10398;52.490;13.434;2023-03-01T05:21:07;2.00;99.90
20479;DHT22;10398;52.490;13.434;2023-03-01T05:23:34;2.00;99.90
20479;DHT22;10398;52.490;13.434;2023-03-01T05:26:01;1.90;99.90
20479;DHT22;10398;52.490;13.434;2023-03-01T05:28:29;1.90;99.90
20479;DHT22;10398;52.490;13.434;2023-03-01T05:30:55;1.90;99.90
20479;DHT22;10398;52.490;13.434;2023-03-01T05:33:21;1.80;99.90
20479;DHT22;10398;52.490;13.434;2023-03-01T05:35:49;1.90;99.90
20479;DHT22;10398;52.490;13.434;2023-03-01T05:38:15;1.90;99.90
20479;DHT22;10398;52.490;13.434;2023-03-01T05:40:47;2.00;99.90
20479;DHT22;10398;52.490;13.434;2023-03-01T05:43:14;1.90;99.90
20479;DHT22;10398;52.490;13.434;2023-03-01T05:45:40;2.00;99.90
20479;DHT22;10398;52.490;13.434;2023-03-01T05:48:08;2.10;99.90
20479;DHT22;10398;52.490;13.434;2023-03-01T05:50:35;2.10;99.90
20479;DHT22;10398;52.490;13.434;2023-03-01T05:53:06;2.20;99.90
20479;DHT22;10398;52.490;13.434;2023-03-01T05:55:33;2.30;99.90
20479;DHT22;10398;52.490;13.434;2023-03-01T05:58:00;2.20;99.90
20479;DHT22;10398;52.490;13.434;2023-03-01T06:00:27;2.20;99.90
20479;DHT22;10398;52.490;13.434;2023-03-01T06:02:54;2.20;99.90
20479;DHT22;10398;52.490;13.434;2023-03-01T06:05:20;2.10;99.90
20479;DHT22;10398;52.490;13.434;2023-03-01T06:07:46;2.10;99.90
20479;DHT22;10398;52.490;13.434;2023-03-01T06:10:12;2.20;99.90
20479;DHT22;10398;52.490;13.434;2023-03-01T06:12:40;2.10;99.90
20479;DHT22;10398;52.490;13.434;2023-03-01T06:15:06;2.20;99.90
20479;DHT22;10398;52.490;13.434;2023-03-01T06:17:35;2.20;99.90
20479;DHT22;10398;52.490;13.434;2023-03-01T06:20:18;2.30;99.90
20479;DHT22;10398;52.490;13.434;2023-03-01T06:22:44;2.40;99.90
20479;DHT22;10398;52.490;13.434;2023-03-01T06:25:12;2.40;99.90
20479;DHT22;10398;52.490;13.434;2023-03-01T06:27:38;2.40;99.90
20479;DHT22;10398;52.490;13.434;2023-03-01T06:30:05;2.50;99.90
20479;DHT22;10398;52.490;13.434;2023-03-01T06:32:30;2.60;99.90
20479;DHT22;10398;52.490;13.434;2023-03-01T06:34:57;2.60;99.90
20479;DHT22;10398;52.490;13.434;2023-03-01T06:37:24;2.50;99.90
20479;DHT22;10398;52.490;13.434;2023-03-01T06:39:53;2.50;99.90
20479;DHT22;10398;52.490;13.434;2023-03-01T06:42:18;2.40;99.90
20479;DHT22;10398;52.490;13.434;2023-03-01T06:44:44;2.50;99.90
20479;DHT22;10398;52.490;13.434;2023-03-01T06:47:11;2.40;99.90
20479;DHT22;10398;52.490;13.434;2023-03-01T06:49:37;2.50;99.90
20479;DHT22;10398;52.490;13.434;2023-03-01T06:52:03;2.60;99.90
20479;DHT22;10398;52.490;13.434;2023-03-01T06:54:28;2.60;99.90
20479;DHT22;10398;52.490;13.434;2023-03-01T06:56:54;2.60;99.90
20479;DHT22;10398;52.490;13.434;2023-03-01T06:59:20;2.60;99.90
20479;DHT22;10398;52.490;13.434;2023-03-01T07:01:46;2.60;99.90
20479;DHT22;10398;52.490;13.434;2023-03-01T07:04:12;2.60;99.90
20479;DHT22;10398;52.490;13.434;2023-03-01T07:06:38;2.60;99.90
20479;DHT22;10398;52.490;13.434;2023-03-01T07:09:04;2.70;99.90
20479;DHT22;10398;52.490;13.434;2023-03-01T07:11:30;2.70;99.90
20479;DHT22;10398;52.490;13.434;2023-03-01T07:13:58;2.80;99.90
20479;DHT22;10398;52.490;13.434;2023-03-01T07:16:25;2.80;99.90
20479;DHT22;10398;52.490;13.434;2023-03-01T07:18:51;2.90;99.90
20479;DHT22;10398;52.490;13.434;2023-03-01T07:21:16;3.00;99.90
20479;DHT22;10398;52.490;13.434;2023-03-01T07:23:42;3.10;99.90
20479;DHT22;10398;52.490;13.434;2023-03-01T07:26:08;3.10;99.90
20479;DHT22;10398;52.490;13.434;2023-03-01T07:28:33;3.00;99.90
20479;DHT22;10398;52.490;13.434;2023-03-01T07:31:05;3.00;99.90
20479;DHT22;10398;52.490;13.434;2023-03-01T07:33:32;3.10;99.90
20479;DHT22;10398;52.490;13.434;2023-03-01T07:35:59;3.20;99.90
20479;DHT22;10398;52.490;13.434;2023-03-01T07:38:26;3.30;99.90
20479;DHT22;10398;52.490;13.434;2023-03-01T07:40:52;3.50;99.90
20479;DHT22;10398;52.490;13.434;2023-03-01T07:43:18;3.60;99.90
20479;DHT22;10398;52.490;13.434;2023-03-01T07:45:44;3.70;99.90
20479;DHT22;10398;52.490;13.434;2023-03-01T07:48:10;3.80;99.90
20479;DHT22;10398;52.490;13.434;2023-03-01T07:50:36;3.80;99.90
20479;DHT22;10398;52.490;13.434;2023-03-01T07:53:01;4.00;99.90
20479;DHT22;10398;52.490;13.434;2023-03-01T07:55:28;4.10;99.90
20479;DHT22;10398;52.490;13.434;2023-03-01T07:57:53;4.10;99.90
20479;DHT22;10398;52.490;13.434;2023-03-01T08:00:26;4.30;99.90
20479;DHT22;10398;52.490;13.434;2023-03-01T08:02:52;4.40;99.90
20479;DHT22;10398;52.490;13.434;2023-03-01T08:05:18;4.30;99.90
20479;DHT22;10398;52.490;13.434;2023-03-01T08:07:44;4.40;99.90
20479;DHT22;10398;52.490;13.434;2023-03-01T08:10:10;4.50;99.90
20479;DHT22;10398;52.490;13.434;2023-03-01T08:12:36;4.60;99.90
20479;DHT22;10398;52.490;13.434;2023-03-01T08:15:01;4.80;99.90
20479;DHT22;10398;52.490;13.434;2023-03-01T08:17:27;5.10;99.90
20479;DHT22;10398;52.490;13.434;2023-03-01T08:19:52;5.30;99.90
20479;DHT22;10398;52.490;13.434;2023-03-01T08:22:18;5.50;99.90
20479;DHT22;10398;52.490;13.434;2023-03-01T08:24:44;5.70;99.90
20479;DHT22;10398;52.490;13.434;2023-03-01T08:27:09;6.00;99.90
20479;DHT22;10398;52.490;13.434;2023-03-01T08:29:37;6.20;99.90
20479;DHT22;10398;52.490;13.434;2023-03-01T08:32:03;6.40;99.90
20479;DHT22;10398;52.490;13.434;2023-03-01T08:34:29;6.60;99.90
20479;DHT22;10398;52.490;13.434;2023-03-01T08:36:56;6.80;99.90
20479;DHT22;10398;52.490;13.434;2023-03-01T08:39:22;6.90;99.90
20479;DHT22;10398;52.490;13.434;2023-03-01T08:41:48;7.20;99.90
20479;DHT22;10398;52.490;13.434;2023-03-01T08:44:14;7.60;99.90
20479;DHT22;10398;52.490;13.434;2023-03-01T08:46:44;8.10;99.90
20479;DHT22;10398;52.490;13.434;2023-03-01T08:49:16;8.30;99.90
20479;DHT22;10398;52.490;13.434;2023-03-01T08:51:42;8.50;99.90
20479;DHT22;10398;52.490;13.434;2023-03-01T08:54:14;8.60;99.90
20479;DHT22;10398;52.490;13.434;2023-03-01T08:56:40;8.70;98.90
20479;DHT22;10398;52.490;13.434;2023-03-01T08:59:06;8.80;99.20
20479;DHT22;10398;52.490;13.434;2023-03-01T09:01:32;9.00;98.70
20479;DHT22;10398;52.490;13.434;2023-03-01T09:03:58;9.10;98.10
20479;DHT22;10398;52.490;13.434;2023-03-01T09:06:24;9.40;98.40
20479;DHT22;10398;52.490;13.434;2023-03-01T09:08:52;9.40;98.40
20479;DHT22;10398;52.490;13.434;2023-03-01T09:11:21;9.70;99.10
20479;DHT22;10398;52.490;13.434;2023-03-01T09:13:48;9.90;97.20
20479;DHT22;10398;52.490;13.434;2023-03-01T09:16:16;10.00;95.60
20479;DHT22;10398;52.490;13.434;2023-03-01T09:18:43;9.80;95.10
20479;DHT22;10398;52.490;13.434;2023-03-01T09:21:12;10.10;95.10
20479;DHT22;10398;52.490;13.434;2023-03-01T09:23:43;10.10;94.80
20479;DHT22;10398;52.490;13.434;2023-03-01T09:26:18;10.00;94.10
20479;DHT22;10398;52.490;13.434;2023-03-01T09:28:45;10.40;94.20
20479;DHT22;10398;52.490;13.434;2023-03-01T09:31:12;10.50;92.90
20479;DHT22;10398;52.490;13.434;2023-03-01T09:33:39;10.50;91.70
20479;DHT22;10398;52.490;13.434;2023-03-01T09:36:07;10.70;91.70
20479;DHT22;10398;52.490;13.434;2023-03-01T09:38:33;10.90;91.40
20479;DHT22;10398;52.490;13.434;2023-03-01T09:41:00;10.90;91.30
20479;DHT22;10398;52.490;13.434;2023-03-01T09:43:49;11.00;90.50
20479;DHT22;10398;52.490;13.434;2023-03-01T09:46:21;11.20;90.00
20479;DHT22;10398;52.490;13.434;2023-03-01T09:48:51;11.30;88.20
20479;DHT22;10398;52.490;13.434;2023-03-01T09:51:30;11.50;89.30
20479;DHT22;10398;52.490;13.434;2023-03-01T09:53:56;11.70;88.10
20479;DHT22;10398;52.490;13.434;2023-03-01T09:56:40;11.90;86.90
20479;DHT22;10398;52.490;13.434;2023-03-01T10:00:04;12.00;85.30
20479;DHT22;10398;52.490;13.434;2023-03-01T10:05:34;12.00;80.30
20479;DHT22;10398;52.490;13.434;2023-03-01T10:10:32;12.00;77.50
20479;DHT22;10398;52.490;13.434;2023-03-01T10:13:00;12.00;77.90
20479;DHT22;10398;52.490;13.434;2023-03-01T10:15:38;12.00;77.30
20479;DHT22;10398;52.490;13.434;2023-03-01T10:18:11;12.20;76.80
20479;DHT22;10398;52.490;13.434;2023-03-01T10:23:04;12.00;76.10
20479;DHT22;10398;52.490;13.434;2023-03-01T10:26:06;12.10;77.70
20479;DHT22;10398;52.490;13.434;2023-03-01T10:31:25;12.70;72.30
20479;DHT22;10398;52.490;13.434;2023-03-01T10:33:53;12.40;72.30
20479;DHT22;10398;52.490;13.434;2023-03-01T10:36:21;12.70;73.00
20479;DHT22;10398;52.490;13.434;2023-03-01T10:38:54;13.10;72.30
20479;DHT22;10398;52.490;13.434;2023-03-01T10:41:24;13.00;70.30
20479;DHT22;10398;52.490;13.434;2023-03-01T10:43:58;13.20;71.80
20479;DHT22;10398;52.490;13.434;2023-03-01T10:46:34;13.70;71.40
20479;DHT22;10398;52.490;13.434;2023-03-01T10:49:20;13.80;70.90
20479;DHT22;10398;52.490;13.434;2023-03-01T10:51:50;13.70;69.50
20479;DHT22;10398;52.490;13.434;2023-03-01T10:54:23;13.70;69.80
20479;DHT22;10398;52.490;13.434;2023-03-01T10:56:53;13.70;70.30
20479;DHT22;10398;52.490;13.434;2023-03-01T10:59:32;13.80;70.00
20479;DHT22;10398;52.490;13.434;2023-03-01T11:02:30;13.90;70.00
20479;DHT22;10398;52.490;13.434;2023-03-01T11:05:03;14.20;69.20
20479;DHT22;10398;52.490;13.434;2023-03-01T11:10:29;14.50;66.60
20479;DHT22;10398;52.490;13.434;2023-03-01T11:13:15;14.90;66.20
20479;DHT22;10398;52.490;13.434;2023-03-01T11:15:42;14.90;66.10
20479;DHT22;10398;52.490;13.434;2023-03-01T11:18:20;15.10;64.40
20479;DHT22;10398;52.490;13.434;2023-03-01T11:20:46;15.40;63.60
20479;DHT22;10398;52.490;13.434;2023-03-01T11:23:15;15.20;62.20
20479;DHT22;10398;52.490;13.434;2023-03-01T11:25:50;14.90;60.70
20479;DHT22;10398;52.490;13.434;2023-03-01T11:28:18;15.10;59.80
20479;DHT22;10398;52.490;13.434;2023-03-01T11:31:11;15.00;58.80
20479;DHT22;10398;52.490;13.434;2023-03-01T11:33:44;15.00;59.40
20479;DHT22;10398;52.490;13.434;2023-03-01T11:38:53;14.70;58.70
20479;DHT22;10398;52.490;13.434;2023-03-01T11:41:23;14.70;57.60
20479;DHT22;10398;52.490;13.434;2023-03-01T12:03:28;15.30;56.30
20479;DHT22;10398;52.490;13.434;2023-03-01T12:14:27;15.10;52.50
20479;DHT22;10398;52.490;13.434;2023-03-01T12:28:00;15.10;52.90
20479;DHT22;10398;52.490;13.434;2023-03-01T12:30:51;15.30;53.80
20479;DHT22;10398;52.490;13.434;2023-03-01T12:36:15;15.40;51.10
20479;DHT22;10398;52.490;13.434;2023-03-01T12:38:49;15.70;51.60
20479;DHT22;10398;52.490;13.434;2023-03-01T12:44:15;15.50;49.10
20479;DHT22;10398;52.490;13.434;2023-03-01T12:50:02;15.70;48.90
20479;DHT22;10398;52.490;13.434;2023-03-01T12:52:38;15.80;48.70
20479;DHT22;10398;52.490;13.434;2023-03-01T12:55:18;15.90;48.40
20479;DHT22;10398;52.490;13.434;2023-03-01T12:57:59;16.10;49.40
20479;DHT22;10398;52.490;13.434;2023-03-01T13:00:59;16.10;49.20
20479;DHT22;10398;52.490;13.434;2023-03-01T13:06:23;16.00;47.90
20479;DHT22;10398;52.490;13.434;2023-03-01T13:09:24;15.90;48.00
20479;DHT22;10398;52.490;13.434;2023-03-01T13:11:54;15.80;50.40
20479;DHT22;10398;52.490;13.434;2023-03-01T13:16:53;16.10;54.70
20479;DHT22;10398;52.490;13.434;2023-03-01T13:19:29;15.50;48.70
20479;DHT22;10398;52.490;13.434;2023-03-01T13:22:28;15.20;48.90
20479;DHT22;10398;52.490;13.434;2023-03-01T13:25:18;15.10;50.50
20479;DHT22;10398;52.490;13.434;2023-03-01T13:27:46;15.50;50.30
20479;DHT22;10398;52.490;13.434;2023-03-01T13:33:42;15.60;49.60
20479;DHT22;10398;52.490;13.434;2023-03-01T13:36:09;15.60;49.20
20479;DHT22;10398;52.490;13.434;2023-03-01T13:38:55;15.60;48.20
20479;DHT22;10398;52.490;13.434;2023-03-01T13:44:37;15.80;47.80
20479;DHT22;10398;52.490;13.434;2023-03-01T13:49:47;15.20;48.30
20479;DHT22;10398;52.490;13.434;2023-03-01T13:55:02;14.90;48.50
20479;DHT22;10398;52.490;13.434;2023-03-01T13:57:38;14.80;48.60
20479;DHT22;10398;52.490;13.434;2023-03-01T14:00:24;14.60;48.20
20479;DHT22;10398;52.490;13.434;2023-03-01T14:05:30;14.00;49.20
20479;DHT22;10398;52.490;13.434;2023-03-01T14:07:56;13.90;49.20
20479;DHT22;10398;52.490;13.434;2023-03-01T14:10:27;14.10;49.40
20479;DHT22;10398;52.490;13.434;2023-03-01T14:18:42;14.20;49.00
20479;DHT22;10398;52.490;13.434;2023-03-01T14:21:17;13.70;49.30
20479;DHT22;10398;52.490;13.434;2023-03-01T14:23:43;13.70;49.70
20479;DHT22;10398;52.490;13.434;2023-03-01T14:26:09;13.80;49.70
20479;DHT22;10398;52.490;13.434;2023-03-01T14:28:38;13.90;49.80
20479;DHT22;10398;52.490;13.434;2023-03-01T14:33:55;13.70;50.20
20479;DHT22;10398;52.490;13.434;2023-03-01T14:36:27;13.70;50.60
20479;DHT22;10398;52.490;13.434;2023-03-01T14:38:53;13.60;50.80
20479;DHT22;10398;52.490;13.434;2023-03-01T14:41:27;13.50;51.40
20479;DHT22;10398;52.490;13.434;2023-03-01T14:44:00;13.60;51.50
20479;DHT22;10398;52.490;13.434;2023-03-01T14:46:35;13.50;51.70
20479;DHT22;10398;52.490;13.434;2023-03-01T14:49:09;13.30;52.20
20479;DHT22;10398;52.490;13.434;2023-03-01T14:51:41;13.20;52.90
20479;DHT22;10398;52.490;13.434;2023-03-01T14:54:41;13.30;53.00
20479;DHT22;10398;52.490;13.434;2023-03-01T14:57:22;13.30;53.50
20479;DHT22;10398;52.490;13.434;2023-03-01T14:59:53;13.20;54.40
20479;DHT22;10398;52.490;13.434;2023-03-01T15:02:23;13.30;54.20
20479;DHT22;10398;52.490;13.434;2023-03-01T15:04:55;13.10;54.50
20479;DHT22;10398;52.490;13.434;2023-03-01T15:07:29;12.90;54.80
20479;DHT22;10398;52.490;13.434;2023-03-01T15:09:58;12.70;55.80
20479;DHT22;10398;52.490;13.434;2023-03-01T15:14:54;12.50;56.90
20479;DHT22;10398;52.490;13.434;2023-03-01T15:17:31;12.40;57.30
20479;DHT22;10398;52.490;13.434;2023-03-01T15:19:57;12.30;57.60
20479;DHT22;10398;52.490;13.434;2023-03-01T15:22:27;12.20;57.90
20479;DHT22;10398;52.490;13.434;2023-03-01T15:24:53;12.00;58.60
20479;DHT22;10398;52.490;13.434;2023-03-01T15:27:22;12.00;59.10
20479;DHT22;10398;52.490;13.434;2023-03-01T15:29:50;11.80;59.60
20479;DHT22;10398;52.490;13.434;2023-03-01T15:32:34;11.50;60.50
20479;DHT22;10398;52.490;13.434;2023-03-01T15:40:51;11.50;61.70
20479;DHT22;10398;52.490;13.434;2023-03-01T15:43:45;11.40;61.90
20479;DHT22;10398;52.490;13.434;2023-03-01T15:46:30;11.30;61.90
20479;DHT22;10398;52.490;13.434;2023-03-01T15:48:59;11.30;62.10
20479;DHT22;10398;52.490;13.434;2023-03-01T15:54:00;11.20;62.50
20479;DHT22;10398;52.490;13.434;2023-03-01T15:56:26;11.20;62.60
20479;DHT22;10398;52.490;13.434;2023-03-01T15:58:52;11.10;63.60
20479;DHT22;10398;52.490;13.434;2023-03-01T16:01:18;11.10;62.70
20479;DHT22;10398;52.490;13.434;2023-03-01T16:03:44;10.90;63.70
20479;DHT22;10398;52.490;13.434;2023-03-01T16:06:11;10.80;63.90
20479;DHT22;10398;52.490;13.434;2023-03-01T16:08:40;10.80;63.80
20479;DHT22;10398;52.490;13.434;2023-03-01T16:11:25;10.80;64.10
20479;DHT22;10398;52.490;13.434;2023-03-01T16:13:50;10.70;64.10
20479;DHT22;10398;52.490;13.434;2023-03-01T16:16:17;10.70;65.00
20479;DHT22;10398;52.490;13.434;2023-03-01T16:18:44;10.70;65.20
20479;DHT22;10398;52.490;13.434;2023-03-01T16:21:23;10.60;65.80
20479;DHT22;10398;52.490;13.434;2023-03-01T16:23:52;10.50;66.20
20479;DHT22;10398;52.490;13.434;2023-03-01T16:26:18;10.60;66.70
20479;DHT22;10398;52.490;13.434;2023-03-01T16:28:45;10.50;66.40
20479;DHT22;10398;52.490;13.434;2023-03-01T16:31:11;10.50;66.40
20479;DHT22;10398;52.490;13.434;2023-03-01T16:33:37;10.50;66.50
20479;DHT22;10398;52.490;13.434;2023-03-01T16:36:11;10.40;66.90
20479;DHT22;10398;52.490;13.434;2023-03-01T16:38:37;10.30;67.00
20479;DHT22;10398;52.490;13.434;2023-03-01T16:41:04;10.30;67.40
20479;DHT22;10398;52.490;13.434;2023-03-01T16:43:31;10.30;67.80
20479;DHT22;10398;52.490;13.434;2023-03-01T16:45:57;10.30;67.80
20479;DHT22;10398;52.490;13.434;2023-03-01T16:48:24;10.20;68.10
20479;DHT22;10398;52.490;13.434;2023-03-01T16:50:58;10.10;68.30
20479;DHT22;10398;52.490;13.434;2023-03-01T16:53:23;10.00;68.30
20479;DHT22;10398;52.490;13.434;2023-03-01T16:55:54;9.90;69.00
20479;DHT22;10398;52.490;13.434;2023-03-01T16:58:19;9.90;69.90
20479;DHT22;10398;52.490;13.434;2023-03-01T17:00:45;9.80;70.00
20479;DHT22;10398;52.490;13.434;2023-03-01T17:03:11;9.70;71.00
20479;DHT22;10398;52.490;13.434;2023-03-01T17:05:40;9.60;71.10
20479;DHT22;10398;52.490;13.434;2023-03-01T17:08:06;9.60;71.90
20479;DHT22;10398;52.490;13.434;2023-03-01T17:10:32;9.60;72.10
20479;DHT22;10398;52.490;13.434;2023-03-01T17:12:58;9.60;72.40
20479;DHT22;10398;52.490;13.434;2023-03-01T17:15:24;9.50;72.20
20479;DHT22;10398;52.490;13.434;2023-03-01T17:17:49;9.50;72.50
20479;DHT22;10398;52.490;13.434;2023-03-01T17:20:16;9.50;73.20
20479;DHT22;10398;52.490;13.434;2023-03-01T17:22:42;9.50;73.00
20479;DHT22;10398;52.490;13.434;2023-03-01T17:25:09;9.40;73.30
20479;DHT22;10398;52.490;13.434;2023-03-01T17:27:37;9.40;73.80
20479;DHT22;10398;52.490;13.434;2023-03-01T17:30:04;9.20;74.10
20479;DHT22;10398;52.490;13.434;2023-03-01T17:32:30;9.20;74.70